createdAt,value
2023-03-19T00:04:17.549Z,22.00
2023-03-19T00:09:22.597Z,22.00
2023-03-19T00:14:26.332Z,22.10
2023-03-19T00:19:30.492Z,22.00
2023-03-19T00:24:34.730Z,22.00
2023-03-19T00:29:37.531Z,21.90
2023-03-19T00:34:40.889Z,22.00
2023-03-19T00:39:45.090Z,22.10
2023-03-19T00:44:47.890Z,22.00
2023-03-19T00:49:50.803Z,22.00
2023-03-19T00:54:54.946Z,22.00
2023-03-19T00:59:57.795Z,22.00
2023-03-19T01:05:00.653Z,21.90
2023-03-19T01:10:05.342Z,22.00
2023-03-19T01:15:10.275Z,21.90
2023-03-19T01:20:15.217Z,21.90
2023-03-19T01:25:19.476Z,22.00
2023-03-19T01:30:22.569Z,21.90
2023-03-19T01:35:25.418Z,21.90
2023-03-19T01:40:29.703Z,21.90
2023-03-19T01:45:37.124Z,21.90
2023-03-19T01:50:42.020Z,21.90
2023-03-19T01:55:47.422Z,21.90
2023-03-19T02:00:50.353Z,21.90
2023-03-19T02:05:53.906Z,22.00
2023-03-19T02:11:00.277Z,21.90
2023-03-19T02:16:03.266Z,21.90
2023-03-19T02:21:08.563Z,21.90
2023-03-19T02:26:13.657Z,21.80
2023-03-19T02:31:18.278Z,21.90
2023-03-19T02:36:21.277Z,21.90
2023-03-19T02:41:26.182Z,21.80
2023-03-19T02:46:29.064Z,21.90
2023-03-19T02:51:31.978Z,21.90
2023-03-19T02:56:36.189Z,21.90
2023-03-19T03:01:39.061Z,21.90
2023-03-19T03:06:41.987Z,21.90
2023-03-19T03:11:46.446Z,21.80
2023-03-19T03:16:49.642Z,21.80
2023-03-19T03:21:52.556Z,21.80
2023-03-19T03:26:56.706Z,21.80
2023-03-19T03:31:59.506Z,21.90
2023-03-19T03:37:02.344Z,21.80
2023-03-19T03:42:06.810Z,21.80
2023-03-19T03:47:10.040Z,21.70
2023-03-19T03:52:13.199Z,21.90
2023-03-19T03:57:17.359Z,21.80
2023-03-19T04:02:20.613Z,21.80
2023-03-19T04:07:23.518Z,21.90
2023-03-19T04:12:28.191Z,21.80
2023-03-19T04:17:31.106Z,21.80
2023-03-19T04:22:34.013Z,21.80
2023-03-19T04:27:38.358Z,21.90
2023-03-19T04:32:41.518Z,21.80
2023-03-19T04:37:48.419Z,21.70
2023-03-19T04:42:52.623Z,21.80
2023-03-19T04:47:56.251Z,21.70
2023-03-19T04:52:59.182Z,21.80
2023-03-19T04:58:03.479Z,21.80
2023-03-19T05:03:06.372Z,21.70
2023-03-19T05:08:09.659Z,21.80
2023-03-19T05:13:13.857Z,21.70
2023-03-19T05:18:16.662Z,21.80
2023-03-19T05:23:19.494Z,21.70
2023-03-19T05:28:23.671Z,21.70
2023-03-19T05:33:26.540Z,21.70
2023-03-19T05:38:29.354Z,21.70
2023-03-19T05:43:33.903Z,21.70
2023-03-19T05:48:36.794Z,21.70
2023-03-19T05:53:39.746Z,21.70
2023-03-19T05:58:43.940Z,21.60
2023-03-19T06:03:46.800Z,21.70
2023-03-19T06:08:49.706Z,21.70
2023-03-19T06:13:53.927Z,21.70
2023-03-19T06:18:56.917Z,21.70
2023-03-19T06:23:59.972Z,21.70
2023-03-19T06:29:04.217Z,21.60
2023-03-19T06:34:07.022Z,21.70
2023-03-19T06:39:10.190Z,21.60
2023-03-19T06:44:14.381Z,21.70
2023-03-19T06:49:18.032Z,21.70
2023-03-19T06:54:20.935Z,21.70
2023-03-19T06:59:25.077Z,21.70
2023-03-19T07:04:27.941Z,21.70
2023-03-19T07:09:31.076Z,21.70
2023-03-19T07:14:35.448Z,21.70
2023-03-19T07:19:38.314Z,21.70
2023-03-19T07:24:41.286Z,21.70
2023-03-19T07:29:45.420Z,21.60
2023-03-19T07:34:48.448Z,21.70
2023-03-19T07:39:51.299Z,21.70
2023-03-19T07:44:55.502Z,21.70
2023-03-19T07:49:58.393Z,21.60
2023-03-19T07:55:01.607Z,21.60
2023-03-19T08:00:06.914Z,21.60
2023-03-19T08:05:10.701Z,21.60
2023-03-19T08:10:13.568Z,21.60
2023-03-19T08:15:17.847Z,21.60
2023-03-19T08:20:21.386Z,21.60
2023-03-19T08:25:24.934Z,21.70
2023-03-19T08:30:29.192Z,21.70
2023-03-19T08:35:32.126Z,21.70
2023-03-19T08:40:35.182Z,21.80
2023-03-19T08:45:39.881Z,21.70
2023-03-19T08:50:42.709Z,21.70
2023-03-19T08:55:46.347Z,21.80
2023-03-19T09:00:50.755Z,21.80
2023-03-19T09:05:53.550Z,21.70
2023-03-19T09:10:56.645Z,21.80
2023-03-19T09:16:01.410Z,21.70
2023-03-19T09:21:04.701Z,21.70
2023-03-19T09:26:07.578Z,21.80
2023-03-19T09:31:12.004Z,21.70
2023-03-19T09:36:14.939Z,21.70
2023-03-19T09:41:21.962Z,21.80
2023-03-19T09:46:31.352Z,21.70
2023-03-19T09:51:38.654Z,21.80
2023-03-19T09:56:41.477Z,21.80
2023-03-19T10:01:52.069Z,21.70
2023-03-19T10:07:00.637Z,21.70
2023-03-19T10:12:27.487Z,21.70
2023-03-19T10:17:33.830Z,21.70
2023-03-19T10:22:40.004Z,21.80
2023-03-19T10:27:42.953Z,21.80
2023-03-19T10:32:51.060Z,22.00
2023-03-19T10:37:55.232Z,22.10
2023-03-19T10:43:06.523Z,22.10
2023-03-19T10:48:14.701Z,22.00
2023-03-19T10:53:30.770Z,22.00
2023-03-19T10:58:35.382Z,22.00
2023-03-19T11:03:41.048Z,22.00
2023-03-19T11:08:44.065Z,22.00
2023-03-19T11:13:48.209Z,22.10
2023-03-19T11:18:52.454Z,22.00
2023-03-19T11:24:01.175Z,22.00
2023-03-19T11:29:05.929Z,22.10
2023-03-19T11:34:18.838Z,22.10
2023-03-19T11:39:28.418Z,22.10
2023-03-19T11:44:35.974Z,22.00
2023-03-19T11:49:46.541Z,22.10
2023-03-19T11:54:58.830Z,22.00
2023-03-19T12:00:12.538Z,22.10
2023-03-19T12:05:22.210Z,22.10
2023-03-19T12:10:39.182Z,22.20
2023-03-19T12:15:49.374Z,22.30
2023-03-19T12:20:58.532Z,22.30
2023-03-19T12:26:05.974Z,22.30
2023-03-19T12:31:34.528Z,22.30
2023-03-19T12:36:43.119Z,22.40
2023-03-19T12:41:48.422Z,22.30
2023-03-19T12:46:58.504Z,22.20
2023-03-19T12:52:07.148Z,22.10
2023-03-19T12:57:13.519Z,22.10
2023-03-19T13:02:21.813Z,22.10
2023-03-19T13:07:29.971Z,22.10
2023-03-19T13:12:34.225Z,22.10
2023-03-19T13:17:42.412Z,22.00
2023-03-19T13:22:51.177Z,22.10
2023-03-19T13:27:55.137Z,22.10
2023-03-19T13:33:03.679Z,22.10
2023-03-19T13:38:18.509Z,22.00
2023-03-19T13:43:37.997Z,22.10
2023-03-19T13:48:50.886Z,22.00
2023-03-19T13:53:56.390Z,22.00
2023-03-19T13:59:26.736Z,22.00
2023-03-19T14:04:30.957Z,22.00
2023-03-19T14:09:40.615Z,22.00
2023-03-19T14:14:44.434Z,22.00
2023-03-19T14:19:47.452Z,22.00
2023-03-19T14:25:06.071Z,22.10
2023-03-19T14:30:12.515Z,22.20
2023-03-19T14:35:17.396Z,22.20
2023-03-19T14:40:24.558Z,22.30
2023-03-19T14:45:40.311Z,22.20
2023-03-19T14:51:14.663Z,22.20
2023-03-19T14:56:22.451Z,22.30
2023-03-19T15:01:27.835Z,22.20
2023-03-19T15:06:34.573Z,22.20
2023-03-19T15:11:51.148Z,22.20
2023-03-19T15:16:59.547Z,22.20
2023-03-19T15:22:06.563Z,22.30
2023-03-19T15:27:24.299Z,22.30
2023-03-19T15:33:03.859Z,22.30
2023-03-19T15:38:01.384Z,22.40
2023-03-19T15:43:06.106Z,22.30
2023-03-19T15:48:11.859Z,22.20
2023-03-19T15:53:17.531Z,22.10
2023-03-19T15:58:24.191Z,22.10
2023-03-19T16:03:30.121Z,22.10
2023-03-19T16:08:33.446Z,22.10
2023-03-19T16:13:40.832Z,22.00
2023-03-19T16:18:46.759Z,22.00
2023-03-19T16:23:53.835Z,22.00
2023-03-19T16:29:01.401Z,21.90
2023-03-19T16:34:04.507Z,21.90
2023-03-19T16:39:21.586Z,21.90
2023-03-19T16:44:31.327Z,21.90
2023-03-19T16:49:34.332Z,21.80
2023-03-19T16:54:37.811Z,21.80
2023-03-19T16:59:42.006Z,21.80
2023-03-19T17:04:45.629Z,21.80
2023-03-19T17:09:48.457Z,21.80
2023-03-19T17:14:53.510Z,21.80
2023-03-19T17:19:56.357Z,21.70
2023-03-19T17:24:59.135Z,21.70
2023-03-19T17:30:03.330Z,21.60
2023-03-19T17:35:14.959Z,21.60
2023-03-19T17:40:19.498Z,21.60
2023-03-19T17:45:27.644Z,21.50
2023-03-19T17:50:31.567Z,21.70
2023-03-19T17:55:34.446Z,21.60
2023-03-19T18:00:39.023Z,21.60
2023-03-19T18:05:42.178Z,21.60
2023-03-19T18:10:45.020Z,21.60
2023-03-19T18:15:49.225Z,21.60
2023-03-19T18:20:52.076Z,21.60
2023-03-19T18:25:55.009Z,21.60
2023-03-19T18:30:59.540Z,21.60
2023-03-19T18:36:02.589Z,21.50
2023-03-19T18:41:05.754Z,21.50
2023-03-19T18:46:13.960Z,21.50
2023-03-19T18:51:16.899Z,21.50
2023-03-19T18:56:22.614Z,21.60
2023-03-19T19:01:28.278Z,21.60
2023-03-19T19:06:46.923Z,21.50
2023-03-19T19:11:50.497Z,21.50
2023-03-19T19:16:54.815Z,21.50
2023-03-19T19:21:57.647Z,21.50
2023-03-19T19:27:01.551Z,21.50
2023-03-19T19:32:07.023Z,21.50
2023-03-19T19:37:11.067Z,21.50
2023-03-19T19:42:14.679Z,21.40
2023-03-19T19:47:19.113Z,21.50
2023-03-19T19:52:21.999Z,21.50
2023-03-19T19:57:25.263Z,21.40
2023-03-19T20:02:29.983Z,21.40
2023-03-19T20:07:32.781Z,21.50
2023-03-19T20:12:35.575Z,21.50
2023-03-19T20:17:39.758Z,21.40
2023-03-19T20:22:42.569Z,21.50
2023-03-19T20:27:45.910Z,21.40
2023-03-19T20:32:50.908Z,21.40
2023-03-19T20:37:54.931Z,21.40
2023-03-19T20:42:59.100Z,21.50
2023-03-19T20:48:03.983Z,21.40
2023-03-19T20:53:07.259Z,21.40
2023-03-19T20:58:17.362Z,21.30
2023-03-19T21:03:23.551Z,21.40
2023-03-19T21:08:32.481Z,21.40
2023-03-19T21:13:35.396Z,21.30
2023-03-19T21:18:39.564Z,21.40
2023-03-19T21:23:44.801Z,21.30
2023-03-19T21:28:48.511Z,21.30
2023-03-19T21:33:52.719Z,21.30
2023-03-19T21:38:55.569Z,21.30
2023-03-19T21:44:00.865Z,21.40
2023-03-19T21:49:08.390Z,21.40
2023-03-19T21:54:11.438Z,21.50
2023-03-19T21:59:16.101Z,21.30
2023-03-19T22:04:20.346Z,21.40
2023-03-19T22:09:23.228Z,21.30
2023-03-19T22:14:27.882Z,21.40
2023-03-19T22:19:32.012Z,21.30
2023-03-19T22:24:34.946Z,21.30
2023-03-19T22:29:37.810Z,21.30
2023-03-19T22:34:42.052Z,21.30
2023-03-19T22:39:44.898Z,21.30
2023-03-19T22:44:48.985Z,21.30
2023-03-19T22:49:53.847Z,21.20
2023-03-19T22:54:56.679Z,21.30
2023-03-19T22:59:59.559Z,21.30
2023-03-19T23:05:21.399Z,21.20
2023-03-19T23:10:26.816Z,21.20
2023-03-19T23:15:31.798Z,21.30
2023-03-19T23:20:36.125Z,21.20
2023-03-19T23:25:38.994Z,21.30
2023-03-19T23:30:41.864Z,21.30
2023-03-19T23:35:47.009Z,21.30
2023-03-19T23:40:52.389Z,21.30
2023-03-19T23:45:58.152Z,21.20
2023-03-19T23:51:03.019Z,21.30
2023-03-19T23:56:10.490Z,21.20
